sensor_id;sensor_type;location;lat;lon;timestamp;pressure;altitude;pressure_sealevel;temperature;humidity
40954;BME280;26686;50.130;8.710;2023-05-10T00:03:06;99362.69;;;15.95;96.69
40954;BME280;26686;50.130;8.710;2023-05-10T00:08:07;99365.69;;;16.00;95.06
40954;BME280;26686;50.130;8.710;2023-05-10T00:13:09;99359.97;;;16.03;96.54
40954;BME280;26686;50.130;8.710;2023-05-10T00:18:10;99376.16;;;16.10;95.75
40954;BME280;26686;50.130;8.710;2023-05-10T00:23:12;99374.25;;;15.96;96.86
40954;BME280;26686;50.130;8.710;2023-05-10T00:28:13;99375.84;;;15.90;96.33
40954;BME280;26686;50.130;8.710;2023-05-10T00:33:15;99378.03;;;15.86;96.16
40954;BME280;26686;50.130;8.710;2023-05-10T00:38:16;99386.94;;;15.87;96.12
40954;BME280;26686;50.130;8.710;2023-05-10T00:43:17;99385.28;;;15.78;96.02
40954;BME280;26686;50.130;8.710;2023-05-10T00:48:19;99386.84;;;15.72;94.07
40954;BME280;26686;50.130;8.710;2023-05-10T00:53:21;99391.22;;;15.65;94.39
40954;BME280;26686;50.130;8.710;2023-05-10T00:58:22;99393.91;;;15.65;93.58
40954;BME280;26686;50.130;8.710;2023-05-10T01:03:25;99387.81;;;15.48;93.15
40954;BME280;26686;50.130;8.710;2023-05-10T01:08:27;99396.72;;;15.40;95.29
40954;BME280;26686;50.130;8.710;2023-05-10T01:13:36;99399.06;;;15.43;94.08
40954;BME280;26686;50.130;8.710;2023-05-10T01:18:40;99399.94;;;15.35;95.01
40954;BME280;26686;50.130;8.710;2023-05-10T01:29:44;99402.69;;;15.19;95.57
40954;BME280;26686;50.130;8.710;2023-05-10T01:35:23;99405.19;;;15.20;97.18
40954;BME280;26686;50.130;8.710;2023-05-10T01:46:01;99426.97;;;15.26;93.86
40954;BME280;26686;50.130;8.710;2023-05-10T01:51:06;99426.34;;;15.15;92.93
40954;BME280;26686;50.130;8.710;2023-05-10T01:56:09;99433.72;;;15.13;93.86
40954;BME280;26686;50.130;8.710;2023-05-10T02:01:12;99427.69;;;15.11;94.15
40954;BME280;26686;50.130;8.710;2023-05-10T02:06:16;99438.59;;;15.10;93.59
40954;BME280;26686;50.130;8.710;2023-05-10T02:11:19;99440.25;;;15.11;96.17
40954;BME280;26686;50.130;8.710;2023-05-10T02:16:24;99441.38;;;15.25;93.18
40954;BME280;26686;50.130;8.710;2023-05-10T02:21:28;99439.56;;;15.17;94.37
40954;BME280;26686;50.130;8.710;2023-05-10T02:26:31;99440.75;;;15.14;93.00
40954;BME280;26686;50.130;8.710;2023-05-10T02:31:34;99458.19;;;15.10;94.00
40954;BME280;26686;50.130;8.710;2023-05-10T02:36:38;99459.53;;;14.98;93.43
40954;BME280;26686;50.130;8.710;2023-05-10T02:41:41;99464.22;;;15.04;93.46
40954;BME280;26686;50.130;8.710;2023-05-10T02:46:43;99462.22;;;15.06;94.32
40954;BME280;26686;50.130;8.710;2023-05-10T02:51:56;99455.69;;;15.09;95.45
40954;BME280;26686;50.130;8.710;2023-05-10T02:57:03;99465.38;;;15.10;95.10
40954;BME280;26686;50.130;8.710;2023-05-10T03:02:06;99458.22;;;15.02;93.97
40954;BME280;26686;50.130;8.710;2023-05-10T03:07:07;99468.44;;;14.98;94.09
40954;BME280;26686;50.130;8.710;2023-05-10T03:17:36;99472.59;;;15.01;95.17
40954;BME280;26686;50.130;8.710;2023-05-10T03:22:47;99467.41;;;14.99;92.83
40954;BME280;26686;50.130;8.710;2023-05-10T03:27:51;99478.66;;;15.03;92.23
40954;BME280;26686;50.130;8.710;2023-05-10T03:32:53;99480.81;;;14.99;91.97
40954;BME280;26686;50.130;8.710;2023-05-10T03:37:55;99480.13;;;15.06;94.33
40954;BME280;26686;50.130;8.710;2023-05-10T03:42:56;99486.00;;;15.01;93.43
40954;BME280;26686;50.130;8.710;2023-05-10T03:47:58;99496.22;;;15.06;92.78
40954;BME280;26686;50.130;8.710;2023-05-10T03:52:59;99506.44;;;15.02;91.55
40954;BME280;26686;50.130;8.710;2023-05-10T03:58:01;99501.78;;;14.96;91.23
40954;BME280;26686;50.130;8.710;2023-05-10T04:03:03;99498.25;;;14.87;91.46
40954;BME280;26686;50.130;8.710;2023-05-10T04:08:04;99505.44;;;14.95;92.99
40954;BME280;26686;50.130;8.710;2023-05-10T04:13:06;99496.91;;;14.99;91.83
40954;BME280;26686;50.130;8.710;2023-05-10T04:18:07;99497.06;;;14.98;93.02
40954;BME280;26686;50.130;8.710;2023-05-10T04:23:09;99494.91;;;14.93;92.65
40954;BME280;26686;50.130;8.710;2023-05-10T04:28:10;99496.75;;;14.93;94.19
40954;BME280;26686;50.130;8.710;2023-05-10T04:33:11;99508.47;;;15.00;93.04
40954;BME280;26686;50.130;8.710;2023-05-10T04:38:13;99493.72;;;14.96;92.83
40954;BME280;26686;50.130;8.710;2023-05-10T04:43:14;99511.66;;;14.95;92.11
40954;BME280;26686;50.130;8.710;2023-05-10T04:48:15;99511.16;;;14.92;92.20
40954;BME280;26686;50.130;8.710;2023-05-10T04:53:17;99510.84;;;14.70;92.67
40954;BME280;26686;50.130;8.710;2023-05-10T04:58:18;99520.03;;;14.84;92.97
40954;BME280;26686;50.130;8.710;2023-05-10T05:03:20;99518.69;;;14.88;92.57
40954;BME280;26686;50.130;8.710;2023-05-10T05:08:22;99523.06;;;14.81;93.11
40954;BME280;26686;50.130;8.710;2023-05-10T05:13:24;99526.22;;;14.84;93.13
40954;BME280;26686;50.130;8.710;2023-05-10T05:18:25;99524.72;;;14.90;93.53
40954;BME280;26686;50.130;8.710;2023-05-10T05:23:27;99537.94;;;14.92;93.67
40954;BME280;26686;50.130;8.710;2023-05-10T05:28:28;99529.59;;;14.87;93.85
40954;BME280;26686;50.130;8.710;2023-05-10T05:33:34;99541.78;;;14.89;93.62
40954;BME280;26686;50.130;8.710;2023-05-10T05:38:35;99548.31;;;14.95;92.84
40954;BME280;26686;50.130;8.710;2023-05-10T05:43:36;99546.66;;;14.94;92.77
40954;BME280;26686;50.130;8.710;2023-05-10T05:48:38;99557.72;;;14.91;91.36
40954;BME280;26686;50.130;8.710;2023-05-10T05:53:40;99557.38;;;14.94;93.94
40954;BME280;26686;50.130;8.710;2023-05-10T05:58:41;99565.41;;;15.02;93.10
40954;BME280;26686;50.130;8.710;2023-05-10T06:03:43;99567.78;;;14.97;92.21
40954;BME280;26686;50.130;8.710;2023-05-10T06:08:44;99580.13;;;14.98;92.58
40954;BME280;26686;50.130;8.710;2023-05-10T06:13:47;99579.63;;;15.11;94.04
40954;BME280;26686;50.130;8.710;2023-05-10T06:18:48;99580.47;;;15.11;92.36
40954;BME280;26686;50.130;8.710;2023-05-10T06:23:49;99578.13;;;15.16;91.46
40954;BME280;26686;50.130;8.710;2023-05-10T06:28:51;99592.53;;;15.15;89.88
40954;BME280;26686;50.130;8.710;2023-05-10T06:33:52;99599.75;;;15.15;91.37
40954;BME280;26686;50.130;8.710;2023-05-10T06:38:56;99599.25;;;15.19;90.17
40954;BME280;26686;50.130;8.710;2023-05-10T06:43:58;99611.94;;;15.17;90.59
40954;BME280;26686;50.130;8.710;2023-05-10T06:48:59;99606.09;;;15.30;91.92
40954;BME280;26686;50.130;8.710;2023-05-10T06:54:01;99604.22;;;15.31;89.77
40954;BME280;26686;50.130;8.710;2023-05-10T06:59:03;99609.09;;;15.44;89.35
40954;BME280;26686;50.130;8.710;2023-05-10T07:04:04;99611.59;;;15.37;87.98
40954;BME280;26686;50.130;8.710;2023-05-10T07:09:06;99604.25;;;15.23;87.96
40954;BME280;26686;50.130;8.710;2023-05-10T07:14:08;99617.97;;;15.28;84.93
40954;BME280;26686;50.130;8.710;2023-05-10T07:19:10;99627.34;;;15.24;86.15
40954;BME280;26686;50.130;8.710;2023-05-10T07:24:11;99629.38;;;15.30;86.95
40954;BME280;26686;50.130;8.710;2023-05-10T07:29:12;99629.72;;;15.35;86.13
40954;BME280;26686;50.130;8.710;2023-05-10T07:34:14;99631.06;;;15.39;85.73
40954;BME280;26686;50.130;8.710;2023-05-10T07:39:15;99616.63;;;15.40;85.70
40954;BME280;26686;50.130;8.710;2023-05-10T07:44:28;99637.06;;;15.49;84.33
40954;BME280;26686;50.130;8.710;2023-05-10T07:49:29;99641.75;;;15.47;84.71
40954;BME280;26686;50.130;8.710;2023-05-10T07:54:31;99637.41;;;15.38;85.48
40954;BME280;26686;50.130;8.710;2023-05-10T07:59:32;99649.28;;;15.52;85.46
40954;BME280;26686;50.130;8.710;2023-05-10T08:04:34;99652.78;;;15.69;85.53
40954;BME280;26686;50.130;8.710;2023-05-10T08:09:35;99646.38;;;15.86;84.69
40954;BME280;26686;50.130;8.710;2023-05-10T08:14:37;99651.22;;;15.91;82.47
40954;BME280;26686;50.130;8.710;2023-05-10T08:19:38;99656.94;;;15.88;82.67
40954;BME280;26686;50.130;8.710;2023-05-10T08:24:39;99661.09;;;15.99;82.32
40954;BME280;26686;50.130;8.710;2023-05-10T08:29:42;99660.72;;;16.10;81.94
40954;BME280;26686;50.130;8.710;2023-05-10T08:34:50;99659.84;;;16.26;82.33
40954;BME280;26686;50.130;8.710;2023-05-10T08:39:52;99662.13;;;16.37;81.77
40954;BME280;26686;50.130;8.710;2023-05-10T08:44:53;99669.34;;;16.37;80.55
40954;BME280;26686;50.130;8.710;2023-05-10T08:49:55;99668.00;;;16.33;79.94
40954;BME280;26686;50.130;8.710;2023-05-10T08:54:59;99665.13;;;16.42;79.55
40954;BME280;26686;50.130;8.710;2023-05-10T09:00:01;99675.78;;;16.59;77.96
40954;BME280;26686;50.130;8.710;2023-05-10T09:05:03;99670.69;;;16.64;76.57
40954;BME280;26686;50.130;8.710;2023-05-10T09:10:06;99685.13;;;16.63;75.83
40954;BME280;26686;50.130;8.710;2023-05-10T09:15:09;99684.59;;;16.68;76.39
40954;BME280;26686;50.130;8.710;2023-05-10T09:20:11;99696.59;;;16.57;75.17
40954;BME280;26686;50.130;8.710;2023-05-10T09:25:16;99696.41;;;16.58;77.28
40954;BME280;26686;50.130;8.710;2023-05-10T09:30:28;99700.63;;;16.53;76.02
40954;BME280;26686;50.130;8.710;2023-05-10T09:35:31;99694.06;;;16.64;76.27
40954;BME280;26686;50.130;8.710;2023-05-10T09:40:33;99707.13;;;16.67;75.49
40954;BME280;26686;50.130;8.710;2023-05-10T09:45:35;99696.41;;;16.58;75.38
40954;BME280;26686;50.130;8.710;2023-05-10T09:50:39;99710.34;;;16.62;76.31
40954;BME280;26686;50.130;8.710;2023-05-10T09:55:42;99705.44;;;16.74;76.40
40954;BME280;26686;50.130;8.710;2023-05-10T10:00:47;99713.00;;;17.02;74.15
40954;BME280;26686;50.130;8.710;2023-05-10T10:05:52;99712.34;;;17.46;74.24
40954;BME280;26686;50.130;8.710;2023-05-10T10:10:54;99710.69;;;17.60;71.53
40954;BME280;26686;50.130;8.710;2023-05-10T10:15:56;99725.19;;;17.36;70.82
40954;BME280;26686;50.130;8.710;2023-05-10T10:20:57;99719.94;;;17.19;74.32
40954;BME280;26686;50.130;8.710;2023-05-10T10:25:59;99723.13;;;16.91;80.07
40954;BME280;26686;50.130;8.710;2023-05-10T10:31:15;99725.47;;;16.94;80.94
40954;BME280;26686;50.130;8.710;2023-05-10T10:36:18;99725.50;;;16.86;81.37
40954;BME280;26686;50.130;8.710;2023-05-10T10:41:37;99722.50;;;16.81;80.26
40954;BME280;26686;50.130;8.710;2023-05-10T10:52:38;99727.88;;;16.81;81.22
40954;BME280;26686;50.130;8.710;2023-05-10T11:07:56;99736.78;;;16.50;78.36
40954;BME280;26686;50.130;8.710;2023-05-10T11:13:00;99720.41;;;16.60;77.24
40954;BME280;26686;50.130;8.710;2023-05-10T11:18:19;99730.88;;;16.86;77.99
40954;BME280;26686;50.130;8.710;2023-05-10T11:23:21;99732.78;;;17.09;76.18
40954;BME280;26686;50.130;8.710;2023-05-10T11:28:22;99732.34;;;17.20;74.80
40954;BME280;26686;50.130;8.710;2023-05-10T11:33:24;99733.84;;;17.23;75.47
40954;BME280;26686;50.130;8.710;2023-05-10T11:38:25;99722.69;;;17.34;74.87
40954;BME280;26686;50.130;8.710;2023-05-10T11:43:27;99735.69;;;17.45;75.29
40954;BME280;26686;50.130;8.710;2023-05-10T11:48:31;99737.97;;;17.57;74.68
40954;BME280;26686;50.130;8.710;2023-05-10T11:53:33;99747.19;;;17.39;74.30
40954;BME280;26686;50.130;8.710;2023-05-10T11:58:36;99737.97;;;17.10;74.45
40954;BME280;26686;50.130;8.710;2023-05-10T12:03:38;99753.56;;;16.92;75.21
40954;BME280;26686;50.130;8.710;2023-05-10T12:08:45;99751.41;;;16.79;77.11
40954;BME280;26686;50.130;8.710;2023-05-10T12:13:47;99760.13;;;16.89;79.61
40954;BME280;26686;50.130;8.710;2023-05-10T12:18:50;99759.22;;;16.97;77.64
40954;BME280;26686;50.130;8.710;2023-05-10T12:23:59;99755.63;;;17.13;76.91
40954;BME280;26686;50.130;8.710;2023-05-10T12:29:14;99754.69;;;17.44;77.38
40954;BME280;26686;50.130;8.710;2023-05-10T12:39:44;99761.38;;;18.24;71.41
40954;BME280;26686;50.130;8.710;2023-05-10T12:44:47;99753.19;;;18.62;73.24
40954;BME280;26686;50.130;8.710;2023-05-10T12:49:48;99756.78;;;18.84;64.66
40954;BME280;26686;50.130;8.710;2023-05-10T12:54:49;99761.44;;;18.76;66.54
40954;BME280;26686;50.130;8.710;2023-05-10T12:59:51;99764.47;;;19.02;64.88
40954;BME280;26686;50.130;8.710;2023-05-10T13:04:52;99757.94;;;19.12;61.51
40954;BME280;26686;50.130;8.710;2023-05-10T13:09:54;99753.78;;;18.94;61.28
40954;BME280;26686;50.130;8.710;2023-05-10T13:14:55;99756.44;;;19.09;63.24
40954;BME280;26686;50.130;8.710;2023-05-10T13:19:57;99756.91;;;19.34;58.67
40954;BME280;26686;50.130;8.710;2023-05-10T13:24:58;99759.53;;;19.49;55.22
40954;BME280;26686;50.130;8.710;2023-05-10T13:29:59;99764.34;;;19.54;55.16
40954;BME280;26686;50.130;8.710;2023-05-10T13:35:01;99753.56;;;19.54;53.52
40954;BME280;26686;50.130;8.710;2023-05-10T13:40:04;99762.69;;;19.31;52.92
40954;BME280;26686;50.130;8.710;2023-05-10T13:45:06;99761.41;;;19.27;54.59
40954;BME280;26686;50.130;8.710;2023-05-10T13:50:08;99752.94;;;19.52;53.95
40954;BME280;26686;50.130;8.710;2023-05-10T13:55:09;99743.69;;;19.68;51.76
40954;BME280;26686;50.130;8.710;2023-05-10T14:00:13;99755.50;;;19.82;51.52
40954;BME280;26686;50.130;8.710;2023-05-10T14:05:15;99753.41;;;19.84;50.65
40954;BME280;26686;50.130;8.710;2023-05-10T14:10:19;99748.50;;;19.72;50.59
40954;BME280;26686;50.130;8.710;2023-05-10T14:15:21;99744.94;;;19.65;48.71
40954;BME280;26686;50.130;8.710;2023-05-10T14:20:22;99745.66;;;19.52;47.44
40954;BME280;26686;50.130;8.710;2023-05-10T14:25:24;99743.66;;;19.39;46.66
40954;BME280;26686;50.130;8.710;2023-05-10T14:30:25;99745.72;;;19.37;49.38
40954;BME280;26686;50.130;8.710;2023-05-10T14:35:27;99741.72;;;19.33;49.43
40954;BME280;26686;50.130;8.710;2023-05-10T14:40:30;99733.63;;;19.33;50.32
40954;BME280;26686;50.130;8.710;2023-05-10T14:45:31;99732.81;;;19.33;49.61
40954;BME280;26686;50.130;8.710;2023-05-10T14:50:33;99734.69;;;19.32;48.97
40954;BME280;26686;50.130;8.710;2023-05-10T14:55:37;99732.78;;;19.26;50.38
40954;BME280;26686;50.130;8.710;2023-05-10T15:00:40;99726.97;;;19.29;50.50
40954;BME280;26686;50.130;8.710;2023-05-10T15:05:42;99732.81;;;19.33;49.68
40954;BME280;26686;50.130;8.710;2023-05-10T15:10:43;99728.50;;;19.38;49.66
40954;BME280;26686;50.130;8.710;2023-05-10T15:15:44;99726.72;;;19.46;48.44
40954;BME280;26686;50.130;8.710;2023-05-10T15:20:46;99728.81;;;19.29;49.84
40954;BME280;26686;50.130;8.710;2023-05-10T15:25:47;99728.63;;;19.30;48.85
40954;BME280;26686;50.130;8.710;2023-05-10T15:30:50;99720.28;;;19.25;49.77
40954;BME280;26686;50.130;8.710;2023-05-10T15:35:53;99736.09;;;19.28;49.21
40954;BME280;26686;50.130;8.710;2023-05-10T15:40:56;99735.47;;;19.26;49.64
40954;BME280;26686;50.130;8.710;2023-05-10T15:45:58;99748.50;;;19.22;50.65
40954;BME280;26686;50.130;8.710;2023-05-10T15:51:00;99757.53;;;19.15;51.27
40954;BME280;26686;50.130;8.710;2023-05-10T15:56:01;99758.69;;;19.05;51.54
40954;BME280;26686;50.130;8.710;2023-05-10T16:01:03;99764.47;;;19.02;51.73
40954;BME280;26686;50.130;8.710;2023-05-10T16:06:06;99760.28;;;19.00;51.50
40954;BME280;26686;50.130;8.710;2023-05-10T16:11:07;99761.25;;;18.92;51.42
40954;BME280;26686;50.130;8.710;2023-05-10T16:16:09;99774.09;;;18.90;50.29
40954;BME280;26686;50.130;8.710;2023-05-10T16:21:10;99778.34;;;18.84;50.47
40954;BME280;26686;50.130;8.710;2023-05-10T16:26:11;99780.88;;;18.86;51.29
40954;BME280;26686;50.130;8.710;2023-05-10T16:31:13;99772.03;;;18.77;49.58
40954;BME280;26686;50.130;8.710;2023-05-10T16:36:14;99779.94;;;18.79;50.94
40954;BME280;26686;50.130;8.710;2023-05-10T16:41:16;99778.25;;;18.78;50.47
40954;BME280;26686;50.130;8.710;2023-05-10T16:46:17;99780.69;;;18.72;52.64
40954;BME280;26686;50.130;8.710;2023-05-10T16:51:18;99793.34;;;18.57;53.15
40954;BME280;26686;50.130;8.710;2023-05-10T16:56:20;99788.34;;;18.54;53.81
40954;BME280;26686;50.130;8.710;2023-05-10T17:01:22;99789.25;;;18.46;54.46
40954;BME280;26686;50.130;8.710;2023-05-10T17:06:27;99792.41;;;18.50;53.68
40954;BME280;26686;50.130;8.710;2023-05-10T17:11:28;99783.84;;;18.31;53.92
40954;BME280;26686;50.130;8.710;2023-05-10T17:16:30;99791.22;;;18.37;54.79
40954;BME280;26686;50.130;8.710;2023-05-10T17:21:31;99798.81;;;18.34;54.83
40954;BME280;26686;50.130;8.710;2023-05-10T17:26:33;99800.50;;;18.35;55.05
40954;BME280;26686;50.130;8.710;2023-05-10T17:31:34;99792.69;;;18.25;54.26
40954;BME280;26686;50.130;8.710;2023-05-10T17:36:36;99802.69;;;18.16;55.04
40954;BME280;26686;50.130;8.710;2023-05-10T17:41:37;99811.31;;;18.12;54.83
40954;BME280;26686;50.130;8.710;2023-05-10T17:46:38;99809.56;;;18.04;54.73
40954;BME280;26686;50.130;8.710;2023-05-10T17:51:40;99804.16;;;18.04;55.39
40954;BME280;26686;50.130;8.710;2023-05-10T17:56:44;99815.84;;;17.96;54.77
40954;BME280;26686;50.130;8.710;2023-05-10T18:01:45;99805.50;;;17.85;54.48
40954;BME280;26686;50.130;8.710;2023-05-10T18:06:47;99808.03;;;17.87;55.00
40954;BME280;26686;50.130;8.710;2023-05-10T18:11:49;99821.00;;;17.83;54.93
40954;BME280;26686;50.130;8.710;2023-05-10T18:16:50;99821.44;;;17.72;54.80
40954;BME280;26686;50.130;8.710;2023-05-10T18:21:52;99820.13;;;17.67;54.93
40954;BME280;26686;50.130;8.710;2023-05-10T18:26:53;99832.19;;;17.72;55.58
40954;BME280;26686;50.130;8.710;2023-05-10T18:31:54;99825.03;;;17.64;55.21
40954;BME280;26686;50.130;8.710;2023-05-10T18:36:56;99825.50;;;17.67;56.17
40954;BME280;26686;50.130;8.710;2023-05-10T18:41:58;99830.09;;;17.59;55.19
40954;BME280;26686;50.130;8.710;2023-05-10T18:46:59;99826.16;;;17.46;55.51
40954;BME280;26686;50.130;8.710;2023-05-10T18:52:01;99829.94;;;17.37;54.87
40954;BME280;26686;50.130;8.710;2023-05-10T18:57:02;99827.88;;;17.39;55.26
40954;BME280;26686;50.130;8.710;2023-05-10T19:02:04;99831.03;;;17.43;54.83
40954;BME280;26686;50.130;8.710;2023-05-10T19:07:06;99831.56;;;17.38;54.88
40954;BME280;26686;50.130;8.710;2023-05-10T19:12:07;99833.44;;;17.38;55.02
40954;BME280;26686;50.130;8.710;2023-05-10T19:17:09;99837.03;;;17.30;54.28
40954;BME280;26686;50.130;8.710;2023-05-10T19:22:11;99846.28;;;17.27;54.13
40954;BME280;26686;50.130;8.710;2023-05-10T19:27:13;99839.91;;;17.20;55.31
40954;BME280;26686;50.130;8.710;2023-05-10T19:32:14;99841.84;;;17.11;55.04
40954;BME280;26686;50.130;8.710;2023-05-10T19:37:15;99843.19;;;17.07;55.17
40954;BME280;26686;50.130;8.710;2023-05-10T19:42:19;99861.16;;;17.07;56.09
40954;BME280;26686;50.130;8.710;2023-05-10T19:47:20;99864.88;;;17.06;57.01
40954;BME280;26686;50.130;8.710;2023-05-10T19:52:22;99864.38;;;17.02;56.50
40954;BME280;26686;50.130;8.710;2023-05-10T19:57:23;99868.59;;;17.05;56.83
40954;BME280;26686;50.130;8.710;2023-05-10T20:02:25;99882.19;;;17.03;58.29
40954;BME280;26686;50.130;8.710;2023-05-10T20:07:26;99883.03;;;17.04;58.57
40954;BME280;26686;50.130;8.710;2023-05-10T20:12:28;99882.91;;;16.97;62.70
40954;BME280;26686;50.130;8.710;2023-05-10T20:17:29;99881.38;;;16.94;65.91
40954;BME280;26686;50.130;8.710;2023-05-10T20:22:30;99875.53;;;16.91;68.29
40954;BME280;26686;50.130;8.710;2023-05-10T20:27:32;99888.47;;;16.87;69.64
40954;BME280;26686;50.130;8.710;2023-05-10T20:32:33;99896.19;;;16.82;71.23
40954;BME280;26686;50.130;8.710;2023-05-10T20:37:34;99892.34;;;16.76;71.91
40954;BME280;26686;50.130;8.710;2023-05-10T20:42:37;99891.34;;;16.77;71.76
40954;BME280;26686;50.130;8.710;2023-05-10T20:47:39;99891.84;;;16.73;72.14
40954;BME280;26686;50.130;8.710;2023-05-10T20:52:40;99887.19;;;16.67;71.97
40954;BME280;26686;50.130;8.710;2023-05-10T20:57:42;99884.16;;;16.61;71.22
40954;BME280;26686;50.130;8.710;2023-05-10T21:02:44;99888.22;;;16.57;71.39
40954;BME280;26686;50.130;8.710;2023-05-10T21:07:46;99886.53;;;16.56;71.46
40954;BME280;26686;50.130;8.710;2023-05-10T21:12:47;99887.53;;;16.55;71.17
40954;BME280;26686;50.130;8.710;2023-05-10T21:17:49;99892.91;;;16.55;70.44
40954;BME280;26686;50.130;8.710;2023-05-10T21:22:50;99890.41;;;16.46;71.83
40954;BME280;26686;50.130;8.710;2023-05-10T21:27:51;99887.22;;;16.42;71.48
40954;BME280;26686;50.130;8.710;2023-05-10T21:32:53;99893.63;;;16.41;72.54
40954;BME280;26686;50.130;8.710;2023-05-10T21:38:01;99888.25;;;16.41;72.46
40954;BME280;26686;50.130;8.710;2023-05-10T21:43:02;99887.38;;;16.40;73.00
40954;BME280;26686;50.130;8.710;2023-05-10T21:48:03;99883.69;;;16.33;72.86
40954;BME280;26686;50.130;8.710;2023-05-10T21:53:05;99874.81;;;16.33;73.06
40954;BME280;26686;50.130;8.710;2023-05-10T21:58:06;99889.94;;;16.34;73.19
40954;BME280;26686;50.130;8.710;2023-05-10T22:03:08;99885.25;;;16.28;73.70
40954;BME280;26686;50.130;8.710;2023-05-10T22:08:09;99888.91;;;16.26;73.82
40954;BME280;26686;50.130;8.710;2023-05-10T22:13:11;99883.56;;;16.26;73.90
40954;BME280;26686;50.130;8.710;2023-05-10T22:18:12;99882.03;;;16.24;73.63
40954;BME280;26686;50.130;8.710;2023-05-10T22:23:13;99890.59;;;16.19;74.32
40954;BME280;26686;50.130;8.710;2023-05-10T22:28:15;99889.44;;;16.05;74.16
40954;BME280;26686;50.130;8.710;2023-05-10T22:33:16;99892.09;;;15.97;75.03
40954;BME280;26686;50.130;8.710;2023-05-10T22:38:18;99891.63;;;16.02;75.05
40954;BME280;26686;50.130;8.710;2023-05-10T22:43:20;99894.63;;;15.90;72.04
40954;BME280;26686;50.130;8.710;2023-05-10T22:48:21;99893.13;;;15.88;70.61
40954;BME280;26686;50.130;8.710;2023-05-10T22:53:22;99893.94;;;15.80;69.90
40954;BME280;26686;50.130;8.710;2023-05-10T22:58:24;99888.91;;;15.69;70.32
40954;BME280;26686;50.130;8.710;2023-05-10T23:03:27;99891.22;;;15.64;70.07
40954;BME280;26686;50.130;8.710;2023-05-10T23:08:28;99901.28;;;15.62;69.28
40954;BME280;26686;50.130;8.710;2023-05-10T23:13:29;99898.56;;;15.45;70.13
40954;BME280;26686;50.130;8.710;2023-05-10T23:18:31;99911.94;;;15.37;71.51
40954;BME280;26686;50.130;8.710;2023-05-10T23:23:33;99912.47;;;15.41;71.08
40954;BME280;26686;50.130;8.710;2023-05-10T23:28:34;99910.78;;;15.40;70.07
40954;BME280;26686;50.130;8.710;2023-05-10T23:33:36;99905.56;;;15.30;69.12
40954;BME280;26686;50.130;8.710;2023-05-10T23:38:37;99912.03;;;15.19;66.98
40954;BME280;26686;50.130;8.710;2023-05-10T23:43:39;99896.75;;;15.03;65.76
40954;BME280;26686;50.130;8.710;2023-05-10T23:48:40;99904.47;;;15.06;66.64
40954;BME280;26686;50.130;8.710;2023-05-10T23:53:42;99918.31;;;14.93;65.71
40954;BME280;26686;50.130;8.710;2023-05-10T23:58:43;99911.06;;;14.85;67.33
